createdAt,value
2023-01-23T14:22:38.327Z,102765.00
2023-01-23T14:25:16.346Z,102776.19
2023-01-23T14:27:53.205Z,102771.81
2023-01-23T14:30:25.889Z,102771.25
2023-01-23T14:32:54.414Z,102771.81
2023-01-23T14:35:26.658Z,102774.00
2023-01-23T14:37:59.602Z,102777.53
2023-01-23T14:40:37.363Z,102777.53
2023-01-23T14:43:11.897Z,102777.53
2023-01-23T14:45:40.261Z,102777.53
2023-01-23T14:48:15.636Z,102777.53
2023-01-23T14:50:44.453Z,102777.53
2023-01-23T14:53:18.268Z,102777.53
2023-01-23T14:55:50.058Z,102777.53
2023-01-23T14:58:24.881Z,102777.53
2023-01-23T15:00:55.194Z,102777.53
2023-01-23T15:03:37.552Z,102777.53
2023-01-23T15:06:10.545Z,102777.53
2023-01-23T15:08:41.105Z,102777.53
2023-01-23T15:11:11.435Z,102777.53
2023-01-23T15:13:45.584Z,102777.53
2023-01-23T15:16:19.006Z,102777.53
2023-01-23T15:18:54.663Z,102777.53
2023-01-23T15:21:33.691Z,102777.53
2023-01-23T15:24:07.580Z,102777.53
2023-01-23T15:26:38.021Z,102777.53
2023-01-23T15:29:20.159Z,102777.53
2023-01-23T15:31:51.427Z,102777.53
2023-01-23T15:34:32.216Z,102777.53
2023-01-23T15:37:07.715Z,102777.53
2023-01-23T15:39:40.609Z,102777.53
2023-01-23T15:42:28.105Z,102777.53
2023-01-23T15:45:00.394Z,102777.53
2023-01-23T15:47:30.481Z,102777.53
2023-01-23T15:50:00.783Z,102777.53
2023-01-23T15:52:30.975Z,102777.53
2023-01-23T15:55:04.411Z,102777.53
2023-01-23T15:57:32.761Z,102777.53
2023-01-23T16:00:01.293Z,102777.53
2023-01-23T16:02:32.293Z,102777.53
2023-01-23T16:05:02.384Z,102777.53
2023-01-23T16:07:40.168Z,102777.53
2023-01-23T16:10:20.041Z,102777.53
2023-01-23T16:12:52.697Z,102777.53
2023-01-23T16:15:23.636Z,102777.53
2023-01-23T16:17:52.578Z,102777.53
2023-01-23T16:20:22.991Z,102777.53
2023-01-23T16:22:53.959Z,102777.53
2023-01-23T16:25:43.051Z,102777.53
2023-01-23T16:28:16.889Z,102777.53
2023-01-23T16:30:45.695Z,102777.53
2023-01-23T16:33:16.319Z,102777.53
2023-01-23T16:35:45.766Z,102777.53
2023-01-23T16:38:22.342Z,102777.53
2023-01-23T16:40:58.998Z,102777.53
2023-01-23T16:43:27.998Z,102777.53
2023-01-23T16:45:57.126Z,102777.53
2023-01-23T16:48:28.359Z,102777.53
2023-01-23T16:51:03.355Z,102777.53
2023-01-23T16:53:41.041Z,102777.53
2023-01-23T16:56:19.735Z,102777.53
2023-01-23T16:58:48.422Z,102777.53
2023-01-23T17:01:19.852Z,102777.53
2023-01-23T17:03:55.405Z,102777.53
2023-01-23T17:06:23.953Z,102777.53
2023-01-23T17:08:53.827Z,102777.53
2023-01-23T17:11:31.160Z,102777.53
2023-01-23T17:14:02.144Z,102777.53
2023-01-23T17:16:30.995Z,102777.53
2023-01-23T17:19:02.148Z,102777.53
2023-01-23T17:21:37.390Z,102777.53
2023-01-23T17:24:06.568Z,102777.53
2023-01-23T17:26:39.710Z,102777.53
2023-01-23T17:29:08.107Z,102777.53
2023-01-23T17:31:36.639Z,102777.53
2023-01-23T17:34:05.583Z,102777.53
2023-01-23T17:36:34.153Z,102777.53
2023-01-23T17:39:02.562Z,102777.53
2023-01-23T17:41:32.311Z,102777.53
2023-01-23T17:44:07.777Z,102777.53
2023-01-23T17:46:38.882Z,102777.53
2023-01-23T17:49:26.213Z,102777.53
2023-01-23T17:51:55.506Z,102777.53
2023-01-23T17:54:23.725Z,102777.53
2023-01-23T17:56:52.281Z,102777.53
2023-01-23T17:59:22.872Z,102777.53
2023-01-23T18:01:53.473Z,102777.53
2023-01-23T18:04:23.566Z,102777.53
2023-01-23T18:06:52.241Z,102777.53
2023-01-23T18:09:20.704Z,102777.53
2023-01-23T18:11:54.543Z,102777.53
2023-01-23T18:14:38.088Z,102777.53
2023-01-23T18:17:17.149Z,102777.53
2023-01-23T18:19:46.816Z,102777.53
2023-01-23T18:22:15.689Z,102777.53
2023-01-23T18:24:45.045Z,102777.53
2023-01-23T18:27:20.972Z,102777.53
2023-01-23T18:30:11.619Z,102777.53
2023-01-23T18:33:02.699Z,102777.53
2023-01-23T18:35:53.113Z,102777.53
2023-01-23T18:38:27.646Z,102777.53
2023-01-23T18:41:11.053Z,102777.53
2023-01-23T18:43:46.857Z,102777.53
2023-01-23T18:46:19.636Z,102777.53
2023-01-23T18:48:50.403Z,102777.53
2023-01-23T18:51:32.173Z,102777.53
2023-01-23T18:54:13.542Z,102777.53
2023-01-23T18:56:54.292Z,102833.44
2023-01-23T18:59:28.071Z,102833.44
2023-01-23T19:02:05.928Z,102833.44
2023-01-23T19:04:38.765Z,102843.56
2023-01-23T19:07:17.795Z,102832.59
2023-01-23T19:09:47.900Z,102844.03
2023-01-23T19:12:26.236Z,102849.78
2023-01-23T19:15:11.269Z,102848.69
2023-01-23T19:17:50.060Z,102838.88
2023-01-23T19:20:27.708Z,102835.03
2023-01-23T19:23:18.992Z,102835.34
2023-01-23T19:25:50.703Z,102842.41
2023-01-23T19:28:19.794Z,102838.56
2023-01-23T19:30:48.757Z,102858.28
2023-01-23T19:33:20.771Z,102861.84
2023-01-23T19:35:55.946Z,102865.66
2023-01-23T19:38:24.629Z,102863.47
2023-01-23T19:40:53.173Z,102870.56
2023-01-23T19:43:21.880Z,102867.31
2023-01-23T19:45:52.972Z,102867.28
2023-01-23T19:48:23.628Z,102867.28
2023-01-23T19:50:52.214Z,102887.56
2023-01-23T19:53:20.786Z,102889.47
2023-01-23T19:55:49.356Z,102893.88
2023-01-23T19:58:17.844Z,102896.56
2023-01-23T20:00:46.544Z,102894.66
2023-01-23T20:03:15.870Z,102894.13
2023-01-23T20:05:46.049Z,102897.97
2023-01-23T20:08:16.272Z,102889.75
2023-01-23T20:10:44.539Z,102888.38
2023-01-23T20:13:12.781Z,102894.69
2023-01-23T20:15:41.629Z,102882.31
2023-01-23T20:18:11.281Z,102879.06
2023-01-23T20:20:39.682Z,102894.06
2023-01-23T20:23:10.217Z,102886.09
2023-01-23T20:25:38.572Z,102887.41
2023-01-23T20:28:07.619Z,102898.94
2023-01-23T20:30:36.255Z,102907.19
2023-01-23T20:33:04.725Z,102895.94
2023-01-23T20:35:32.926Z,102897.56
2023-01-23T20:38:01.274Z,102891.81
2023-01-23T20:40:31.694Z,102893.50
2023-01-23T20:43:00.255Z,102898.41
2023-01-23T20:45:28.794Z,102905.78
2023-01-23T20:47:57.484Z,102893.75
2023-01-23T20:50:25.987Z,102896.22
2023-01-23T20:53:07.470Z,102896.72
2023-01-23T20:55:37.906Z,102881.97
2023-01-23T20:58:19.264Z,102900.03
2023-01-23T21:00:47.772Z,102891.81
2023-01-23T21:03:16.104Z,102892.94
2023-01-23T21:05:44.417Z,102887.19
2023-01-23T21:08:12.665Z,102888.31
2023-01-23T21:10:43.112Z,102894.03
2023-01-23T21:13:15.008Z,102888.59
2023-01-23T21:15:43.580Z,102893.22
2023-01-23T21:18:12.349Z,102904.47
2023-01-23T21:20:40.838Z,102904.47
2023-01-23T21:23:09.187Z,102887.25
2023-01-23T21:25:37.852Z,102908.84
2023-01-23T21:28:08.381Z,102900.94
2023-01-23T21:30:39.963Z,102896.81
2023-01-23T21:33:08.840Z,102904.16
2023-01-23T21:35:37.396Z,102901.41
2023-01-23T21:38:06.045Z,102896.25
2023-01-23T21:40:34.605Z,102887.19
2023-01-23T21:43:02.853Z,102900.34
2023-01-23T21:45:33.227Z,102889.13
2023-01-23T21:48:01.692Z,102894.59
2023-01-23T21:50:30.090Z,102898.41
2023-01-23T21:52:58.546Z,102902.78
2023-01-23T21:55:26.778Z,102904.97
2023-01-23T21:57:55.154Z,102905.75
2023-01-23T22:00:36.793Z,102919.19
2023-01-23T22:03:07.391Z,102920.84
2023-01-23T22:05:36.678Z,102915.38
2023-01-23T22:08:06.133Z,102908.56
2023-01-23T22:10:35.188Z,102913.72
2023-01-23T22:13:03.758Z,102915.66
2023-01-23T22:15:32.452Z,102918.63
2023-01-23T22:18:00.842Z,102915.91
2023-01-23T22:20:31.062Z,102906.63
2023-01-23T22:22:59.657Z,102906.63
2023-01-23T22:25:27.881Z,102902.50
2023-01-23T22:27:56.428Z,102910.97
2023-01-23T22:30:24.884Z,102901.66
2023-01-23T22:32:53.175Z,102911.25
2023-01-23T22:35:21.796Z,102904.13
2023-01-23T22:37:52.121Z,102904.66
2023-01-23T22:40:20.380Z,102901.66
2023-01-23T22:42:48.580Z,102898.66
2023-01-23T22:45:17.158Z,102905.50
2023-01-23T22:47:45.384Z,102906.03
2023-01-23T22:50:13.680Z,102908.78
2023-01-23T22:52:42.677Z,102905.50
2023-01-23T22:55:14.924Z,102903.31
2023-01-23T22:57:43.655Z,102905.22
2023-01-23T23:00:15.840Z,102912.91
2023-01-23T23:02:44.233Z,102909.31
2023-01-23T23:05:12.477Z,102914.50
2023-01-23T23:07:41.308Z,102908.72
2023-01-23T23:10:13.242Z,102912.06
2023-01-23T23:12:41.430Z,102903.81
2023-01-23T23:15:11.012Z,102901.66
2023-01-23T23:17:39.419Z,102904.66
2023-01-23T23:20:08.765Z,102891.50
2023-01-23T23:22:37.051Z,102898.59
2023-01-23T23:25:05.751Z,102899.75
2023-01-23T23:27:35.831Z,102896.41
2023-01-23T23:30:04.138Z,102898.09
2023-01-23T23:32:32.542Z,102902.94
2023-01-23T23:35:00.823Z,102892.84
2023-01-23T23:37:28.988Z,102891.81
2023-01-23T23:39:57.385Z,102889.06
2023-01-23T23:42:25.689Z,102882.75
2023-01-23T23:44:55.987Z,102894.53
2023-01-23T23:47:24.309Z,102883.00
2023-01-23T23:49:52.504Z,102890.97
2023-01-23T23:52:20.803Z,102902.22
2023-01-23T23:54:49.065Z,102876.72
2023-01-23T23:57:17.239Z,102893.69
2023-01-23T23:59:45.620Z,102896.69
